^^
Station Historical Data
Daily Summary for October 15, 2017 Units:  Both    English   Metric
« Previous Day
Next Day »
Daily Weekly Monthly Yearly Custom
  High: Low: Average:
Temperature: TemperatureF °F /  -17.8 °C 54.7 °F /  12.6 °C 71.8 °F /  22.1 °C
Dew Point: DewpointF °F /  -17.8 °C -32.3 °F /  -35.7 °C 34.9 °F /  1.6 °C
Humidity: Humidity% 0% 5%
Wind Speed: WindSpeedMPHmph /  0km/h - 1.4mph /  2.3km/h
Wind Gust: WindSpeedGustMPHmph /  0km/h - -
Wind- - SW
Pressure: PressureIn in /  0 hPa 29.77 in /  1008 hPa -
Precipitation: 0.00 in /  0 mm    
Historical Graphs
 
 
Tabular Data for October 15, 2017
Time Temperature Dew Point Pressure Wind Wind Speed Wind Gust Humidity Rainfall Rate (Hourly) solar Conditions
TemperatureF °F /  -17.8 °C DewpointF °F /  -17.8 °C PressureInin /  0hPa Calm     Humidity% HourlyPrecipInin /  0mm SolarRadiationWatts/m^2 W/m2 Conditions
00:01 59.5 °F /  15.3 °C 11.8 °F /  -11.2 °C 29.87in /  1011.4hPa Calm     15% 0.00in /  0mm 0.0 W/m2
00:06 59.4 °F /  15.2 °C 11.7 °F /  -11.3 °C 29.86in /  1011.1hPa Calm     15% 0.00in /  0mm 0.0 W/m2
00:11 59.2 °F /  15.1 °C 11.5 °F /  -11.4 °C 29.87in /  1011.4hPa Calm     15% 0.00in /  0mm 0.0 W/m2
00:16 58.8 °F /  14.9 °C 11.3 °F /  -11.5 °C 29.86in /  1011.1hPa Calm     15% 0.00in /  0mm 0.0 W/m2
00:21 58.5 °F /  14.7 °C 12.4 °F /  -10.9 °C 29.86in /  1011.1hPa Calm     16% 0.00in /  0mm 0.0 W/m2
00:26 58.3 °F /  14.6 °C 12.2 °F /  -11 °C 29.86in /  1011.1hPa Calm     16% 0.00in /  0mm 0.0 W/m2
00:37 57.7 °F /  14.3 °C 11.8 °F /  -11.2 °C 29.86in /  1011.1hPa Calm     16% 0.00in /  0mm 0.0 W/m2
00:42 57.6 °F /  14.2 °C 13.1 °F /  -10.5 °C 29.86in /  1011.1hPa Calm     17% 0.00in /  0mm 0.0 W/m2
00:47 57.4 °F /  14.1 °C 12.9 °F /  -10.6 °C 29.86in /  1011.1hPa Calm     17% 0.00in /  0mm 0.0 W/m2
00:52 57.0 °F /  13.9 °C 11.3 °F /  -11.5 °C 29.86in /  1011.1hPa Calm     16% 0.00in /  0mm 0.0 W/m2
00:57 56.8 °F /  13.8 °C 12.4 °F /  -10.9 °C 29.86in /  1011.1hPa SE 1.0mph /  1.6km/h 1.0mph /  1.6km/h 17% 0.00in /  0mm 0.0 W/m2
01:02 56.8 °F /  13.8 °C 12.4 °F /  -10.9 °C 29.86in /  1011.1hPa Calm     17% 0.00in /  0mm 0.0 W/m2
01:07 56.8 °F /  13.8 °C 12.4 °F /  -10.9 °C 29.86in /  1011.1hPa Calm     17% 0.00in /  0mm 0.0 W/m2
01:12 56.8 °F /  13.8 °C 12.4 °F /  -10.9 °C 29.86in /  1011.1hPa Calm     17% 0.00in /  0mm 0.0 W/m2
01:17 56.7 °F /  13.7 °C 12.4 °F /  -10.9 °C 29.86in /  1011.1hPa Calm     17% 0.00in /  0mm 0.0 W/m2
01:23 56.7 °F /  13.7 °C 12.4 °F /  -10.9 °C 29.85in /  1010.7hPa Calm     17% 0.00in /  0mm 0.0 W/m2
01:28 56.5 °F /  13.6 °C 12.2 °F /  -11 °C 29.85in /  1010.7hPa Calm     17% 0.00in /  0mm 0.0 W/m2
01:33 56.5 °F /  13.6 °C 12.2 °F /  -11 °C 29.86in /  1011.1hPa Calm     17% 0.00in /  0mm 0.0 W/m2
01:38 56.5 °F /  13.6 °C 12.2 °F /  -11 °C 29.85in /  1010.7hPa Calm     17% 0.00in /  0mm 0.0 W/m2
01:43 56.3 °F /  13.5 °C 12.0 °F /  -11.1 °C 29.85in /  1010.7hPa Calm   1.0mph /  1.6km/h 17% 0.00in /  0mm 0.0 W/m2
01:48 56.3 °F /  13.5 °C 12.0 °F /  -11.1 °C 29.85in /  1010.7hPa Calm     17% 0.00in /  0mm 0.0 W/m2
01:53 56.3 °F /  13.5 °C 12.0 °F /  -11.1 °C 29.85in /  1010.7hPa Calm   1.0mph /  1.6km/h 17% 0.00in /  0mm 0.0 W/m2
01:58 56.5 °F /  13.6 °C 12.2 °F /  -11 °C 29.85in /  1010.7hPa Calm   1.0mph /  1.6km/h 17% 0.00in /  0mm 0.0 W/m2
02:03 56.7 °F /  13.7 °C 12.4 °F /  -10.9 °C 29.85in /  1010.7hPa East 0.9mph /  1.4km/h 1.0mph /  1.6km/h 17% 0.00in /  0mm 0.0 W/m2
02:09 56.7 °F /  13.7 °C 12.4 °F /  -10.9 °C 29.85in /  1010.7hPa ESE 0.9mph /  1.4km/h 1.0mph /  1.6km/h 17% 0.00in /  0mm 0.0 W/m2
02:14 56.7 °F /  13.7 °C 12.4 °F /  -10.9 °C 29.85in /  1010.7hPa Calm   5.0mph /  8km/h 17% 0.00in /  0mm 0.0 W/m2
02:19 56.7 °F /  13.7 °C 12.4 °F /  -10.9 °C 29.85in /  1010.7hPa Calm     17% 0.00in /  0mm 0.0 W/m2
02:24 56.7 °F /  13.7 °C 12.4 °F /  -10.9 °C 29.84in /  1010.4hPa Calm     17% 0.00in /  0mm 0.0 W/m2
02:29 56.7 °F /  13.7 °C 12.4 °F /  -10.9 °C 29.84in /  1010.4hPa Calm     17% 0.00in /  0mm 0.0 W/m2
02:34 56.7 °F /  13.7 °C 12.4 °F /  -10.9 °C 29.84in /  1010.4hPa Calm   1.0mph /  1.6km/h 17% 0.00in /  0mm 0.0 W/m2
02:39 56.7 °F /  13.7 °C 12.4 °F /  -10.9 °C 29.84in /  1010.4hPa Calm   1.0mph /  1.6km/h 17% 0.00in /  0mm 0.0 W/m2
02:44 56.5 °F /  13.6 °C 12.2 °F /  -11 °C 29.84in /  1010.4hPa Calm     17% 0.00in /  0mm 0.0 W/m2
02:50 56.3 °F /  13.5 °C 13.3 °F /  -10.4 °C 29.83in /  1010hPa Calm     18% 0.00in /  0mm 0.0 W/m2
02:55 55.9 °F /  13.3 °C 13.1 °F /  -10.5 °C 29.83in /  1010hPa Calm     18% 0.00in /  0mm 0.0 W/m2
03:00 55.8 °F /  13.2 °C 12.9 °F /  -10.6 °C 29.83in /  1010hPa Calm     18% 0.00in /  0mm 0.0 W/m2
03:05 55.6 °F /  13.1 °C 12.7 °F /  -10.7 °C 29.83in /  1010hPa Calm     18% 0.00in /  0mm 0.0 W/m2
03:10 55.2 °F /  12.9 °C 13.6 °F /  -10.2 °C 29.83in /  1010hPa Calm     19% 0.00in /  0mm 0.0 W/m2
03:16 55.0 °F /  12.8 °C 12.2 °F /  -11 °C 29.83in /  1010hPa Calm     18% 0.00in /  0mm 0.0 W/m2
03:21 54.9 °F /  12.7 °C 10.8 °F /  -11.8 °C 29.83in /  1010hPa Calm   2.0mph /  3.2km/h 17% 0.00in /  0mm 0.0 W/m2
03:26 54.9 °F /  12.7 °C 9.5 °F /  -12.5 °C 29.82in /  1009.7hPa Calm   3.0mph /  4.8km/h 16% 0.00in /  0mm 0.0 W/m2
03:31 55.2 °F /  12.9 °C 8.4 °F /  -13.1 °C 29.83in /  1010hPa Calm     15% 0.00in /  0mm 0.0 W/m2
03:36 55.4 °F /  13 °C 8.4 °F /  -13.1 °C 29.83in /  1010hPa Calm     15% 0.00in /  0mm 0.0 W/m2
03:42 55.6 °F /  13.1 °C 8.6 °F /  -13 °C 29.83in /  1010hPa Calm     15% 0.00in /  0mm 0.0 W/m2
03:47 55.6 °F /  13.1 °C 7.2 °F /  -13.8 °C 29.83in /  1010hPa Calm     14% 0.00in /  0mm 0.0 W/m2
03:52 55.6 °F /  13.1 °C 7.2 °F /  -13.8 °C 29.83in /  1010hPa Calm     14% 0.00in /  0mm 0.0 W/m2
03:57 55.6 °F /  13.1 °C 7.2 °F /  -13.8 °C 29.83in /  1010hPa Calm     14% 0.00in /  0mm 0.0 W/m2
04:02 55.4 °F /  13 °C 7.0 °F /  -13.9 °C 29.83in /  1010hPa Calm     14% 0.00in /  0mm 0.0 W/m2
04:07 55.2 °F /  12.9 °C 6.8 °F /  -14 °C 29.82in /  1009.7hPa Calm     14% 0.00in /  0mm 0.0 W/m2
04:12 55.0 °F /  12.8 °C 6.6 °F /  -14.1 °C 29.82in /  1009.7hPa Calm     14% 0.00in /  0mm 0.0 W/m2
04:17 54.9 °F /  12.7 °C 6.6 °F /  -14.1 °C 29.82in /  1009.7hPa Calm     14% 0.00in /  0mm 0.0 W/m2
04:22 54.7 °F /  12.6 °C 4.8 °F /  -15.1 °C 29.83in /  1010hPa Calm     13% 0.00in /  0mm 0.0 W/m2
04:28 54.7 °F /  12.6 °C 3.0 °F /  -16.1 °C 29.83in /  1010hPa Calm     12% 0.00in /  0mm 0.0 W/m2
04:33 54.7 °F /  12.6 °C 1.2 °F /  -17.1 °C 29.83in /  1010hPa Calm     11% 0.00in /  0mm 0.0 W/m2
04:38 54.9 °F /  12.7 °C -0.8 °F /  -18.2 °C 29.83in /  1010hPa Calm     10% 0.00in /  0mm 0.0 W/m2
04:44 55.2 °F /  12.9 °C 1.6 °F /  -16.9 °C 29.83in /  1010hPa Calm   2.0mph /  3.2km/h 11% 0.00in /  0mm 0.0 W/m2
04:49 55.6 °F /  13.1 °C 1.9 °F /  -16.7 °C 29.83in /  1010hPa Calm     11% 0.00in /  0mm 0.0 W/m2
04:54 56.5 °F /  13.6 °C -6.9 °F /  -21.6 °C 29.83in /  1010hPa Calm   3.0mph /  4.8km/h 7% 0.00in /  0mm 0.0 W/m2
04:59 57.4 °F /  14.1 °C -3.5 °F /  -19.7 °C 29.83in /  1010hPa Calm     8% 0.00in /  0mm 0.0 W/m2
05:04 57.4 °F /  14.1 °C -3.5 °F /  -19.7 °C 29.83in /  1010hPa Calm     8% 0.00in /  0mm 0.0 W/m2
05:10 57.0 °F /  13.9 °C -3.8 °F /  -19.9 °C 29.83in /  1010hPa Calm   2.0mph /  3.2km/h 8% 0.00in /  0mm 0.0 W/m2
05:15 56.7 °F /  13.7 °C -6.9 °F /  -21.6 °C 29.83in /  1010hPa Calm     7% 0.00in /  0mm 0.0 W/m2
05:20 56.7 °F /  13.7 °C -4.0 °F /  -20 °C 29.83in /  1010hPa Calm     8% 0.00in /  0mm 0.0 W/m2
05:25 56.5 °F /  13.6 °C -6.9 °F /  -21.6 °C 29.83in /  1010hPa Calm     7% 0.00in /  0mm 0.0 W/m2
05:30 56.5 °F /  13.6 °C -6.9 °F /  -21.6 °C 29.84in /  1010.4hPa Calm     7% 0.00in /  0mm 0.0 W/m2
05:35 56.7 °F /  13.7 °C -6.9 °F /  -21.6 °C 29.84in /  1010.4hPa Calm     7% 0.00in /  0mm 0.0 W/m2
05:41 56.7 °F /  13.7 °C -6.9 °F /  -21.6 °C 29.84in /  1010.4hPa Calm     7% 0.00in /  0mm 0.0 W/m2
05:46 56.7 °F /  13.7 °C -9.9 °F /  -23.3 °C 29.84in /  1010.4hPa Calm     6% 0.00in /  0mm 0.0 W/m2
05:52 56.5 °F /  13.6 °C -4.2 °F /  -20.1 °C 29.84in /  1010.4hPa Calm     8% 0.00in /  0mm 0.0 W/m2
05:57 56.1 °F /  13.4 °C -7.2 °F /  -21.8 °C 29.84in /  1010.4hPa Calm     7% 0.00in /  0mm 0.0 W/m2
06:02 55.9 °F /  13.3 °C -4.5 °F /  -20.3 °C 29.84in /  1010.4hPa Calm     8% 0.00in /  0mm 0.0 W/m2
06:07 55.8 °F /  13.2 °C -7.4 °F /  -21.9 °C 29.84in /  1010.4hPa Calm     7% 0.00in /  0mm 0.0 W/m2
06:12 55.8 °F /  13.2 °C -7.4 °F /  -21.9 °C 29.84in /  1010.4hPa Calm     7% 0.00in /  0mm 0.0 W/m2
06:17 55.8 °F /  13.2 °C -10.7 °F /  -23.7 °C 29.84in /  1010.4hPa Calm   2.0mph /  3.2km/h 6% 0.00in /  0mm 0.0 W/m2
06:22 55.8 °F /  13.2 °C -10.7 °F /  -23.7 °C 29.85in /  1010.7hPa Calm   1.0mph /  1.6km/h 6% 0.00in /  0mm 0.0 W/m2
06:27 55.8 °F /  13.2 °C -10.7 °F /  -23.7 °C 29.85in /  1010.7hPa Calm     6% 0.00in /  0mm 5.0 W/m2
06:32 55.6 °F /  13.1 °C -7.6 °F /  -22 °C 29.85in /  1010.7hPa Calm     7% 0.00in /  0mm 7.0 W/m2
06:37 55.2 °F /  12.9 °C -5.1 °F /  -20.6 °C 29.85in /  1010.7hPa Calm     8% 0.00in /  0mm 9.0 W/m2
06:43 55.0 °F /  12.8 °C -2.7 °F /  -19.3 °C 29.85in /  1010.7hPa Calm     9% 0.00in /  0mm 11.0 W/m2
06:48 54.9 °F /  12.7 °C -5.4 °F /  -20.8 °C 29.85in /  1010.7hPa Calm     8% 0.00in /  0mm 12.0 W/m2
06:53 54.7 °F /  12.6 °C -0.9 °F /  -18.3 °C 29.86in /  1011.1hPa Calm     10% 0.00in /  0mm 12.0 W/m2
06:58 54.7 °F /  12.6 °C -0.9 °F /  -18.3 °C 29.86in /  1011.1hPa Calm     10% 0.00in /  0mm 14.0 W/m2
07:04 54.7 °F /  12.6 °C 4.8 °F /  -15.1 °C 29.86in /  1011.1hPa Calm     13% 0.00in /  0mm 16.0 W/m2
07:09 54.7 °F /  12.6 °C 1.2 °F /  -17.1 °C 29.86in /  1011.1hPa Calm     11% 0.00in /  0mm 16.0 W/m2
07:14 54.7 °F /  12.6 °C 6.4 °F /  -14.2 °C 29.86in /  1011.1hPa Calm     14% 0.00in /  0mm 18.0 W/m2
07:19 55.0 °F /  12.8 °C 9.7 °F /  -12.4 °C 29.86in /  1011.1hPa Calm     16% 0.00in /  0mm 21.0 W/m2
07:25 55.2 °F /  12.9 °C 5.2 °F /  -14.9 °C 29.86in /  1011.1hPa Calm     13% 0.00in /  0mm 19.0 W/m2
07:30 55.8 °F /  13.2 °C 10.2 °F /  -12.1 °C 29.86in /  1011.1hPa Calm     16% 0.00in /  0mm 21.0 W/m2
07:35 56.1 °F /  13.4 °C 10.6 °F /  -11.9 °C 29.87in /  1011.4hPa Calm   1.0mph /  1.6km/h 16% 0.00in /  0mm 21.0 W/m2
07:40 56.7 °F /  13.7 °C 4.6 °F /  -15.2 °C 29.87in /  1011.4hPa Calm   2.0mph /  3.2km/h 12% 0.00in /  0mm 23.0 W/m2
07:45 57.6 °F /  14.2 °C -3.3 °F /  -19.6 °C 29.87in /  1011.4hPa ENE 0.9mph /  1.4km/h 2.0mph /  3.2km/h 8% 0.00in /  0mm 25.0 W/m2
07:50 59.5 °F /  15.3 °C -1.8 °F /  -18.8 °C 29.86in /  1011.1hPa East 0.9mph /  1.4km/h 3.0mph /  4.8km/h 8% 0.00in /  0mm 63.0 W/m2
07:55 61.3 °F /  16.3 °C -6.5 °F /  -21.4 °C 29.86in /  1011.1hPa Calm   2.0mph /  3.2km/h 6% 0.00in /  0mm 26.0 W/m2
08:00 62.6 °F /  17 °C -5.6 °F /  -20.9 °C 29.86in /  1011.1hPa Calm   4.0mph /  6.4km/h 6% 0.00in /  0mm 25.0 W/m2
08:05 63.9 °F /  17.7 °C -13.0 °F /  -25 °C 29.85in /  1010.7hPa ENE 2.9mph /  4.7km/h 3.0mph /  4.8km/h 4% 0.00in /  0mm 25.0 W/m2
08:11 65.1 °F /  18.4 °C -12.1 °F /  -24.5 °C 29.85in /  1010.7hPa NE 0.9mph /  1.4km/h 4.0mph /  6.4km/h 4% 0.00in /  0mm 26.0 W/m2
08:16 66.6 °F /  19.2 °C -11.0 °F /  -23.9 °C 29.85in /  1010.7hPa ENE 2.9mph /  4.7km/h 5.0mph /  8km/h 4% 0.00in /  0mm 26.0 W/m2
08:21 68.0 °F /  20 °C -10.1 °F /  -23.4 °C 29.85in /  1010.7hPa North 2.9mph /  4.7km/h 7.0mph /  11.3km/h 4% 0.00in /  0mm 35.0 W/m2
08:26 69.1 °F /  20.6 °C -15.2 °F /  -26.2 °C 29.85in /  1010.7hPa NE 2.9mph /  4.7km/h 4.0mph /  6.4km/h 3% 0.00in /  0mm 490.0 W/m2
08:27 69.1 °F /  20.6 °C -15.2 °F /  -26.2 °C 29.85in /  1010.7hPa East 0.9mph /  1.4km/h 6.0mph /  9.7km/h 3% 0.00in /  0mm 494.0 W/m2
08:32 70.0 °F /  21.1 °C -14.4 °F /  -25.8 °C 29.86in /  1011.1hPa Calm   5.0mph /  8km/h 3% 0.00in /  0mm 513.0 W/m2
08:37 71.1 °F /  21.7 °C -21.6 °F /  -29.8 °C 29.86in /  1011.1hPa NE 6.0mph /  9.7km/h 7.0mph /  11.3km/h 2% 0.00in /  0mm 533.0 W/m2
08:43 72.5 °F /  22.5 °C -20.7 °F /  -29.3 °C 29.86in /  1011.1hPa East 0.9mph /  1.4km/h 9.0mph /  14.5km/h 2% 0.00in /  0mm 555.0 W/m2
08:48 73.6 °F /  23.1 °C -20.0 °F /  -28.9 °C 29.86in /  1011.1hPa NE 6.0mph /  9.7km/h 8.0mph /  12.9km/h 2% 0.00in /  0mm 580.0 W/m2
08:53 74.7 °F /  23.7 °C -32.3 °F /  -35.7 °C 29.86in /  1011.1hPa Calm   7.0mph /  11.3km/h 1% 0.00in /  0mm 596.0 W/m2
08:59 75.4 °F /  24.1 °C -31.7 °F /  -35.4 °C 29.86in /  1011.1hPa NE 4.0mph /  6.4km/h 4.0mph /  6.4km/h 1% 0.00in /  0mm 613.0 W/m2
09:04 76.3 °F /  24.6 °C -31.2 °F /  -35.1 °C 29.86in /  1011.1hPa East 0.9mph /  1.4km/h 9.0mph /  14.5km/h 1% 0.00in /  0mm 631.0 W/m2
09:09 76.8 °F /  24.9 °C -31.0 °F /  -35 °C 29.86in /  1011.1hPa East 2.0mph /  3.2km/h 5.0mph /  8km/h 1% 0.00in /  0mm 650.0 W/m2
09:14 77.7 °F /  25.4 °C 77.7 °F /  25.4 °C 29.86in /  1011.1hPa East 2.0mph /  3.2km/h 4.0mph /  6.4km/h 0% 0.00in /  0mm 668.0 W/m2
09:19 78.4 °F /  25.8 °C 78.4 °F /  25.8 °C 29.86in /  1011.1hPa NE 2.0mph /  3.2km/h 4.0mph /  6.4km/h 0% 0.00in /  0mm 686.0 W/m2
09:24 79.2 °F /  26.2 °C 79.2 °F /  26.2 °C 29.86in /  1011.1hPa ENE 4.0mph /  6.4km/h 4.0mph /  6.4km/h 0% 0.00in /  0mm 703.0 W/m2
09:29 79.7 °F /  26.5 °C -29.2 °F /  -34 °C 29.86in /  1011.1hPa SSE 0.9mph /  1.4km/h 3.0mph /  4.8km/h 1% 0.00in /  0mm 721.0 W/m2
09:34 80.1 °F /  26.7 °C 80.1 °F /  26.7 °C 29.86in /  1011.1hPa Calm   1.0mph /  1.6km/h 0% 0.00in /  0mm 737.0 W/m2
09:39 81.0 °F /  27.2 °C 81.0 °F /  27.2 °C 29.86in /  1011.1hPa Calm   1.0mph /  1.6km/h 0% 0.00in /  0mm 754.0 W/m2
09:45 81.1 °F /  27.3 °C 81.1 °F /  27.3 °C 29.86in /  1011.1hPa WNW 0.9mph /  1.4km/h 2.0mph /  3.2km/h 0% 0.00in /  0mm 770.0 W/m2
09:50 81.3 °F /  27.4 °C 81.3 °F /  27.4 °C 29.86in /  1011.1hPa Calm   3.0mph /  4.8km/h 0% 0.00in /  0mm 784.0 W/m2
09:55 81.3 °F /  27.4 °C 81.3 °F /  27.4 °C 29.85in /  1010.7hPa NNW 2.9mph /  4.7km/h 5.0mph /  8km/h 0% 0.00in /  0mm 800.0 W/m2
10:00 82.0 °F /  27.8 °C 82.0 °F /  27.8 °C 29.85in /  1010.7hPa Calm   2.0mph /  3.2km/h 0% 0.00in /  0mm 814.0 W/m2
10:05 82.4 °F /  28 °C 82.4 °F /  28 °C 29.86in /  1011.1hPa West 0.9mph /  1.4km/h 2.0mph /  3.2km/h 0% 0.00in /  0mm 831.0 W/m2
10:10 82.4 °F /  28 °C 82.4 °F /  28 °C 29.86in /  1011.1hPa NNW 0.9mph /  1.4km/h 2.0mph /  3.2km/h 0% 0.00in /  0mm 844.0 W/m2
10:15 82.6 °F /  28.1 °C 82.6 °F /  28.1 °C 29.85in /  1010.7hPa Calm   5.0mph /  8km/h 0% 0.00in /  0mm 858.0 W/m2
10:20 82.8 °F /  28.2 °C 82.8 °F /  28.2 °C 29.85in /  1010.7hPa Calm   3.0mph /  4.8km/h 0% 0.00in /  0mm 870.0 W/m2
10:25 83.1 °F /  28.4 °C 83.1 °F /  28.4 °C 29.86in /  1011.1hPa NW 4.0mph /  6.4km/h 5.0mph /  8km/h 0% 0.00in /  0mm 884.0 W/m2
10:31 83.7 °F /  28.7 °C 83.7 °F /  28.7 °C 29.85in /  1010.7hPa WSW 2.9mph /  4.7km/h 4.0mph /  6.4km/h 0% 0.00in /  0mm 895.0 W/m2
10:36 84.0 °F /  28.9 °C 84.0 °F /  28.9 °C 29.85in /  1010.7hPa North 4.9mph /  7.9km/h 5.0mph /  8km/h 0% 0.00in /  0mm 907.0 W/m2
10:41 84.6 °F /  29.2 °C 84.6 °F /  29.2 °C 29.86in /  1011.1hPa West 4.9mph /  7.9km/h 8.0mph /  12.9km/h 0% 0.00in /  0mm 919.0 W/m2
10:46 84.4 °F /  29.1 °C 84.4 °F /  29.1 °C 29.86in /  1011.1hPa West 4.9mph /  7.9km/h 5.0mph /  8km/h 0% 0.00in /  0mm 928.0 W/m2
10:51 84.6 °F /  29.2 °C 84.6 °F /  29.2 °C 29.86in /  1011.1hPa Calm   3.0mph /  4.8km/h 0% 0.00in /  0mm 942.0 W/m2
10:56 84.6 °F /  29.2 °C 84.6 °F /  29.2 °C 29.86in /  1011.1hPa Calm   3.0mph /  4.8km/h 0% 0.00in /  0mm 953.0 W/m2
11:01 84.7 °F /  29.3 °C 84.7 °F /  29.3 °C 29.86in /  1011.1hPa WSW 8.1mph /  13km/h 8.1mph /  13km/h 0% 0.00in /  0mm 962.0 W/m2
11:06 84.6 °F /  29.2 °C 84.6 °F /  29.2 °C 29.86in /  1011.1hPa West 4.9mph /  7.9km/h 8.0mph /  12.9km/h 0% 0.00in /  0mm 970.0 W/m2
11:11 84.4 °F /  29.1 °C 84.4 °F /  29.1 °C 29.87in /  1011.4hPa South 6.0mph /  9.7km/h 12.0mph /  19.3km/h 0% 0.00in /  0mm 977.0 W/m2
11:16 84.6 °F /  29.2 °C 84.6 °F /  29.2 °C 29.86in /  1011.1hPa Calm   6.0mph /  9.7km/h 0% 0.00in /  0mm 990.0 W/m2
11:22 84.9 °F /  29.4 °C 84.9 °F /  29.4 °C 29.86in /  1011.1hPa WSW 8.1mph /  13km/h 14.0mph /  22.5km/h 0% 0.00in /  0mm 995.0 W/m2
11:27 84.6 °F /  29.2 °C 84.6 °F /  29.2 °C 29.86in /  1011.1hPa WNW 4.0mph /  6.4km/h 9.0mph /  14.5km/h 0% 0.00in /  0mm 1005.0 W/m2
11:32 84.9 °F /  29.4 °C 84.9 °F /  29.4 °C 29.86in /  1011.1hPa WSW 6.9mph /  11.1km/h 7.0mph /  11.3km/h 0% 0.00in /  0mm 1013.0 W/m2
11:37 85.6 °F /  29.8 °C 85.6 °F /  29.8 °C 29.85in /  1010.7hPa Calm   3.0mph /  4.8km/h 0% 0.00in /  0mm 1014.0 W/m2
11:42 86.2 °F /  30.1 °C 86.2 °F /  30.1 °C 29.86in /  1011.1hPa West 2.9mph /  4.7km/h 14.0mph /  22.5km/h 0% 0.00in /  0mm 1020.0 W/m2
11:47 85.8 °F /  29.9 °C 85.8 °F /  29.9 °C 29.86in /  1011.1hPa West 8.1mph /  13km/h 13.0mph /  20.9km/h 0% 0.00in /  0mm 1027.0 W/m2
11:52 85.6 °F /  29.8 °C 85.6 °F /  29.8 °C 29.86in /  1011.1hPa WNW 4.9mph /  7.9km/h 12.0mph /  19.3km/h 0% 0.00in /  0mm 1030.0 W/m2
11:57 85.8 °F /  29.9 °C 85.8 °F /  29.9 °C 29.85in /  1010.7hPa West 4.9mph /  7.9km/h 10.0mph /  16.1km/h 0% 0.00in /  0mm 1034.0 W/m2
12:02 85.8 °F /  29.9 °C 85.8 °F /  29.9 °C 29.85in /  1010.7hPa WSW 2.0mph /  3.2km/h 11.0mph /  17.7km/h 0% 0.00in /  0mm 1039.0 W/m2
12:07 86.2 °F /  30.1 °C 86.2 °F /  30.1 °C 29.85in /  1010.7hPa West 2.9mph /  4.7km/h 8.0mph /  12.9km/h 0% 0.00in /  0mm 1039.0 W/m2
12:12 86.4 °F /  30.2 °C 86.4 °F /  30.2 °C 29.85in /  1010.7hPa West 6.0mph /  9.7km/h 11.0mph /  17.7km/h 0% 0.00in /  0mm 1044.0 W/m2
12:18 86.5 °F /  30.3 °C 86.5 °F /  30.3 °C 29.85in /  1010.7hPa West 6.9mph /  11.1km/h 7.0mph /  11.3km/h 0% 0.00in /  0mm 1046.0 W/m2
12:23 86.0 °F /  30 °C 86.0 °F /  30 °C 29.85in /  1010.7hPa WNW 4.9mph /  7.9km/h 8.0mph /  12.9km/h 0% 0.00in /  0mm 1046.0 W/m2
12:28 86.2 °F /  30.1 °C 86.2 °F /  30.1 °C 29.84in /  1010.4hPa West 2.0mph /  3.2km/h 12.0mph /  19.3km/h 0% 0.00in /  0mm 1048.0 W/m2
12:33 86.7 °F /  30.4 °C 86.7 °F /  30.4 °C 29.84in /  1010.4hPa NW 0.9mph /  1.4km/h 10.0mph /  16.1km/h 0% 0.00in /  0mm 1048.0 W/m2
12:38 87.1 °F /  30.6 °C 87.1 °F /  30.6 °C 29.84in /  1010.4hPa West 2.0mph /  3.2km/h 7.0mph /  11.3km/h 0% 0.00in /  0mm 1048.0 W/m2
12:43 86.7 °F /  30.4 °C 86.7 °F /  30.4 °C 29.83in /  1010hPa West 4.9mph /  7.9km/h 5.0mph /  8km/h 0% 0.00in /  0mm 1046.0 W/m2
12:48 87.1 °F /  30.6 °C 87.1 °F /  30.6 °C 29.83in /  1010hPa WNW 4.0mph /  6.4km/h 10.0mph /  16.1km/h 0% 0.00in /  0mm 1049.0 W/m2
12:53 87.1 °F /  30.6 °C 87.1 °F /  30.6 °C 29.83in /  1010hPa West 2.0mph /  3.2km/h 7.0mph /  11.3km/h 0% 0.00in /  0mm 1044.0 W/m2
12:59 87.6 °F /  30.9 °C 87.6 °F /  30.9 °C 29.83in /  1010hPa West 2.9mph /  4.7km/h 7.0mph /  11.3km/h 0% 0.00in /  0mm 1041.0 W/m2
13:04 88.7 °F /  31.5 °C 88.7 °F /  31.5 °C 29.83in /  1010hPa WSW 4.9mph /  7.9km/h 9.0mph /  14.5km/h 0% 0.00in /  0mm 1039.0 W/m2
13:09 89.1 °F /  31.7 °C 89.1 °F /  31.7 °C 29.82in /  1009.7hPa WNW 2.9mph /  4.7km/h 6.0mph /  9.7km/h 0% 0.00in /  0mm 1034.0 W/m2
13:14 89.2 °F /  31.8 °C 89.2 °F /  31.8 °C 29.82in /  1009.7hPa NW 4.0mph /  6.4km/h 11.0mph /  17.7km/h 0% 0.00in /  0mm 1030.0 W/m2
13:19 89.2 °F /  31.8 °C 89.2 °F /  31.8 °C 29.82in /  1009.7hPa NE 0.9mph /  1.4km/h 7.0mph /  11.3km/h 0% 0.00in /  0mm 1025.0 W/m2
13:24 89.4 °F /  31.9 °C 89.4 °F /  31.9 °C 29.82in /  1009.7hPa WSW 10.1mph /  16.3km/h 11.0mph /  17.7km/h 0% 0.00in /  0mm 1018.0 W/m2
13:29 88.5 °F /  31.4 °C 88.5 °F /  31.4 °C 29.82in /  1009.7hPa WSW 2.9mph /  4.7km/h 11.0mph /  17.7km/h 0% 0.00in /  0mm 1013.0 W/m2
13:34 88.2 °F /  31.2 °C 88.2 °F /  31.2 °C 29.81in /  1009.4hPa WNW 0.9mph /  1.4km/h 13.0mph /  20.9km/h 0% 0.00in /  0mm 1009.0 W/m2
13:39 88.3 °F /  31.3 °C 88.3 °F /  31.3 °C 29.81in /  1009.4hPa West 10.1mph /  16.3km/h 15.0mph /  24.1km/h 0% 0.00in /  0mm 1000.0 W/m2
13:44 88.3 °F /  31.3 °C 88.3 °F /  31.3 °C 29.81in /  1009.4hPa West 6.0mph /  9.7km/h 8.0mph /  12.9km/h 0% 0.00in /  0mm 993.0 W/m2
13:50 89.1 °F /  31.7 °C 89.1 °F /  31.7 °C 29.80in /  1009hPa Calm   9.0mph /  14.5km/h 0% 0.00in /  0mm 988.0 W/m2
13:55 89.6 °F /  32 °C 89.6 °F /  32 °C 29.80in /  1009hPa NNW 6.0mph /  9.7km/h 7.0mph /  11.3km/h 0% 0.00in /  0mm 976.0 W/m2
14:00 90.1 °F /  32.3 °C 90.1 °F /  32.3 °C 29.80in /  1009hPa NNW 2.0mph /  3.2km/h 6.0mph /  9.7km/h 0% 0.00in /  0mm 967.0 W/m2
14:05 90.5 °F /  32.5 °C 90.5 °F /  32.5 °C 29.80in /  1009hPa WNW 2.0mph /  3.2km/h 7.0mph /  11.3km/h 0% 0.00in /  0mm 958.0 W/m2
14:10 89.8 °F /  32.1 °C 89.8 °F /  32.1 °C 29.79in /  1008.7hPa West 8.1mph /  13km/h 11.0mph /  17.7km/h 0% 0.00in /  0mm 947.0 W/m2
14:15 89.2 °F /  31.8 °C 89.2 °F /  31.8 °C 29.80in /  1009hPa West 0.9mph /  1.4km/h 10.0mph /  16.1km/h 0% 0.00in /  0mm 939.0 W/m2
14:20 89.4 °F /  31.9 °C 89.4 °F /  31.9 °C 29.79in /  1008.7hPa NW 4.0mph /  6.4km/h 4.0mph /  6.4km/h 0% 0.00in /  0mm 930.0 W/m2
14:25 90.0 °F /  32.2 °C 90.0 °F /  32.2 °C 29.79in /  1008.7hPa Calm   8.0mph /  12.9km/h 0% 0.00in /  0mm 921.0 W/m2
14:31 90.1 °F /  32.3 °C 90.1 °F /  32.3 °C 29.79in /  1008.7hPa WSW 0.9mph /  1.4km/h 7.0mph /  11.3km/h 0% 0.00in /  0mm 909.0 W/m2
14:36 90.7 °F /  32.6 °C 90.7 °F /  32.6 °C 29.79in /  1008.7hPa WSW 2.0mph /  3.2km/h 8.0mph /  12.9km/h 0% 0.00in /  0mm 900.0 W/m2
14:41 90.1 °F /  32.3 °C 90.1 °F /  32.3 °C 29.78in /  1008.4hPa Calm   8.0mph /  12.9km/h 0% 0.00in /  0mm 889.0 W/m2
14:42 90.1 °F /  32.3 °C 90.1 °F /  32.3 °C 29.78in /  1008.4hPa West 0.9mph /  1.4km/h 5.0mph /  8km/h 0% 0.00in /  0mm 888.0 W/m2
14:47 90.1 °F /  32.3 °C 90.1 °F /  32.3 °C 29.78in /  1008.4hPa WSW 0.9mph /  1.4km/h 7.0mph /  11.3km/h 0% 0.00in /  0mm 872.0 W/m2
14:52 90.3 °F /  32.4 °C 90.3 °F /  32.4 °C 29.79in /  1008.7hPa WSW 0.9mph /  1.4km/h 10.0mph /  16.1km/h 0% 0.00in /  0mm 860.0 W/m2
14:57 90.3 °F /  32.4 °C 90.3 °F /  32.4 °C 29.78in /  1008.4hPa Calm   5.0mph /  8km/h 0% 0.00in /  0mm 846.0 W/m2
15:03 90.3 °F /  32.4 °C 90.3 °F /  32.4 °C 29.78in /  1008.4hPa West 6.9mph /  11.1km/h 13.0mph /  20.9km/h 0% 0.00in /  0mm 831.0 W/m2
15:08 90.3 °F /  32.4 °C 90.3 °F /  32.4 °C 29.78in /  1008.4hPa WNW 2.0mph /  3.2km/h 7.0mph /  11.3km/h 0% 0.00in /  0mm 816.0 W/m2
15:13 90.7 °F /  32.6 °C 90.7 °F /  32.6 °C 29.78in /  1008.4hPa West 2.0mph /  3.2km/h 10.0mph /  16.1km/h 0% 0.00in /  0mm 802.0 W/m2
15:18 90.9 °F /  32.7 °C 90.9 °F /  32.7 °C 29.78in /  1008.4hPa WSW 4.9mph /  7.9km/h 5.0mph /  8km/h 0% 0.00in /  0mm 786.0 W/m2
15:24 91.0 °F /  32.8 °C 91.0 °F /  32.8 °C 29.77in /  1008hPa Calm   5.0mph /  8km/h 0% 0.00in /  0mm 768.0 W/m2
15:29 90.9 °F /  32.7 °C 90.9 °F /  32.7 °C 29.77in /  1008hPa SW 2.0mph /  3.2km/h 11.0mph /  17.7km/h 0% 0.00in /  0mm 756.0 W/m2
15:34 90.5 °F /  32.5 °C 90.5 °F /  32.5 °C 29.77in /  1008hPa West 2.0mph /  3.2km/h 7.0mph /  11.3km/h 0% 0.00in /  0mm 738.0 W/m2
15:39 90.7 °F /  32.6 °C 90.7 °F /  32.6 °C 29.77in /  1008hPa West 4.9mph /  7.9km/h 9.0mph /  14.5km/h 0% 0.00in /  0mm 722.0 W/m2
15:44 90.0 °F /  32.2 °C 90.0 °F /  32.2 °C 29.77in /  1008hPa WNW 2.0mph /  3.2km/h 10.0mph /  16.1km/h 0% 0.00in /  0mm 707.0 W/m2
15:49 90.0 °F /  32.2 °C 90.0 °F /  32.2 °C 29.77in /  1008hPa WSW 0.9mph /  1.4km/h 7.0mph /  11.3km/h 0% 0.00in /  0mm 689.0 W/m2
15:54 90.7 °F /  32.6 °C 90.7 °F /  32.6 °C 29.77in /  1008hPa West 2.9mph /  4.7km/h 4.0mph /  6.4km/h 0% 0.00in /  0mm 671.0 W/m2
15:59 91.0 °F /  32.8 °C 91.0 °F /  32.8 °C 29.77in /  1008hPa West 2.9mph /  4.7km/h 8.0mph /  12.9km/h 0% 0.00in /  0mm 652.0 W/m2
16:05 90.7 °F /  32.6 °C 90.7 °F /  32.6 °C 29.77in /  1008hPa WSW 10.1mph /  16.3km/h 11.0mph /  17.7km/h 0% 0.00in /  0mm 638.0 W/m2
16:10 90.0 °F /  32.2 °C 90.0 °F /  32.2 °C 29.77in /  1008hPa WSW 0.9mph /  1.4km/h 8.0mph /  12.9km/h 0% 0.00in /  0mm 617.0 W/m2
16:15 89.8 °F /  32.1 °C 89.8 °F /  32.1 °C 29.77in /  1008hPa WSW 4.0mph /  6.4km/h 11.0mph /  17.7km/h 0% 0.00in /  0mm 596.0 W/m2
16:20 89.4 °F /  31.9 °C 89.4 °F /  31.9 °C 29.77in /  1008hPa West 2.0mph /  3.2km/h 7.0mph /  11.3km/h 0% 0.00in /  0mm 578.0 W/m2
16:25 90.0 °F /  32.2 °C 90.0 °F /  32.2 °C 29.77in /  1008hPa WSW 0.9mph /  1.4km/h 6.0mph /  9.7km/h 0% 0.00in /  0mm 561.0 W/m2
16:30 90.0 °F /  32.2 °C 90.0 °F /  32.2 °C 29.77in /  1008hPa WSW 4.9mph /  7.9km/h 11.0mph /  17.7km/h 0% 0.00in /  0mm 541.0 W/m2
16:35 89.1 °F /  31.7 °C 89.1 °F /  31.7 °C 29.77in /  1008hPa SW 6.9mph /  11.1km/h 9.0mph /  14.5km/h 0% 0.00in /  0mm 520.0 W/m2
16:40 88.9 °F /  31.6 °C 88.9 °F /  31.6 °C 29.77in /  1008hPa Calm   8.0mph /  12.9km/h 0% 0.00in /  0mm 501.0 W/m2
16:46 89.4 °F /  31.9 °C 89.4 °F /  31.9 °C 29.77in /  1008hPa West 4.9mph /  7.9km/h 11.0mph /  17.7km/h 0% 0.00in /  0mm 482.0 W/m2
16:51 89.2 °F /  31.8 °C 89.2 °F /  31.8 °C 29.77in /  1008hPa WNW 2.0mph /  3.2km/h 6.0mph /  9.7km/h 0% 0.00in /  0mm 462.0 W/m2
16:56 89.1 °F /  31.7 °C 89.1 °F /  31.7 °C 29.77in /  1008hPa West 11.0mph /  17.7km/h 11.0mph /  17.7km/h 0% 0.00in /  0mm 441.0 W/m2
17:01 88.5 °F /  31.4 °C 88.5 °F /  31.4 °C 29.77in /  1008hPa WSW 4.9mph /  7.9km/h 10.0mph /  16.1km/h 0% 0.00in /  0mm 422.0 W/m2
17:06 88.2 °F /  31.2 °C 88.2 °F /  31.2 °C 29.77in /  1008hPa WSW 0.9mph /  1.4km/h 9.0mph /  14.5km/h 0% 0.00in /  0mm 401.0 W/m2
17:11 88.2 °F /  31.2 °C 88.2 °F /  31.2 °C 29.77in /  1008hPa SW 2.9mph /  4.7km/h 8.0mph /  12.9km/h 0% 0.00in /  0mm 378.0 W/m2
17:16 88.2 °F /  31.2 °C 88.2 °F /  31.2 °C 29.78in /  1008.4hPa WSW 4.0mph /  6.4km/h 10.0mph /  16.1km/h 0% 0.00in /  0mm 357.0 W/m2
17:21 88.0 °F /  31.1 °C 88.0 °F /  31.1 °C 29.78in /  1008.4hPa West 4.9mph /  7.9km/h 10.0mph /  16.1km/h 0% 0.00in /  0mm 336.0 W/m2
17:26 87.6 °F /  30.9 °C 87.6 °F /  30.9 °C 29.78in /  1008.4hPa SW 2.0mph /  3.2km/h 7.0mph /  11.3km/h 0% 0.00in /  0mm 313.0 W/m2
17:31 87.4 °F /  30.8 °C 87.4 °F /  30.8 °C 29.78in /  1008.4hPa West 6.9mph /  11.1km/h 10.0mph /  16.1km/h 0% 0.00in /  0mm 294.0 W/m2
17:37 87.1 °F /  30.6 °C 87.1 °F /  30.6 °C 29.78in /  1008.4hPa West 2.0mph /  3.2km/h 8.0mph /  12.9km/h 0% 0.00in /  0mm 274.0 W/m2
17:42 86.9 °F /  30.5 °C 86.9 °F /  30.5 °C 29.78in /  1008.4hPa WSW 4.9mph /  7.9km/h 9.0mph /  14.5km/h 0% 0.00in /  0mm 250.0 W/m2
17:47 86.7 °F /  30.4 °C 86.7 °F /  30.4 °C 29.78in /  1008.4hPa West 2.9mph /  4.7km/h 8.0mph /  12.9km/h 0% 0.00in /  0mm 232.0 W/m2
17:52 86.7 °F /  30.4 °C 86.7 °F /  30.4 °C 29.78in /  1008.4hPa West 8.1mph /  13km/h 10.0mph /  16.1km/h 0% 0.00in /  0mm 209.0 W/m2
17:57 86.5 °F /  30.3 °C 86.5 °F /  30.3 °C 29.78in /  1008.4hPa West 2.9mph /  4.7km/h 8.0mph /  12.9km/h 0% 0.00in /  0mm 188.0 W/m2
18:02 86.4 °F /  30.2 °C 86.4 °F /  30.2 °C 29.78in /  1008.4hPa Calm   7.0mph /  11.3km/h 0% 0.00in /  0mm 162.0 W/m2
18:07 86.0 °F /  30 °C 86.0 °F /  30 °C 29.79in /  1008.7hPa WSW 2.0mph /  3.2km/h 9.0mph /  14.5km/h 0% 0.00in /  0mm 137.0 W/m2
18:12 85.6 °F /  29.8 °C 85.6 °F /  29.8 °C 29.79in /  1008.7hPa SW 0.9mph /  1.4km/h 9.0mph /  14.5km/h 0% 0.00in /  0mm 113.0 W/m2
18:17 85.5 °F /  29.7 °C 85.5 °F /  29.7 °C 29.79in /  1008.7hPa WSW 2.0mph /  3.2km/h 3.0mph /  4.8km/h 0% 0.00in /  0mm 91.0 W/m2
18:23 84.9 °F /  29.4 °C 84.9 °F /  29.4 °C 29.79in /  1008.7hPa SSW 4.0mph /  6.4km/h 4.0mph /  6.4km/h 0% 0.00in /  0mm 69.0 W/m2
18:28 84.7 °F /  29.3 °C 84.7 °F /  29.3 °C 29.79in /  1008.7hPa South 4.0mph /  6.4km/h 8.0mph /  12.9km/h 0% 0.00in /  0mm 51.0 W/m2
18:33 84.4 °F /  29.1 °C 84.4 °F /  29.1 °C 29.79in /  1008.7hPa WSW 0.9mph /  1.4km/h 4.0mph /  6.4km/h 0% 0.00in /  0mm 25.0 W/m2
18:38 83.7 °F /  28.7 °C 83.7 °F /  28.7 °C 29.79in /  1008.7hPa West 2.9mph /  4.7km/h 4.0mph /  6.4km/h 0% 0.00in /  0mm 16.0 W/m2
18:43 82.9 °F /  28.3 °C 82.9 °F /  28.3 °C 29.80in /  1009hPa Calm   7.0mph /  11.3km/h 0% 0.00in /  0mm 12.0 W/m2
18:48 82.2 °F /  27.9 °C 82.2 °F /  27.9 °C 29.80in /  1009hPa WSW 2.9mph /  4.7km/h 6.0mph /  9.7km/h 0% 0.00in /  0mm 7.0 W/m2
18:53 81.5 °F /  27.5 °C 81.5 °F /  27.5 °C 29.80in /  1009hPa West 0.9mph /  1.4km/h 3.0mph /  4.8km/h 0% 0.00in /  0mm 5.0 W/m2
18:58 81.0 °F /  27.2 °C 81.0 °F /  27.2 °C 29.80in /  1009hPa WSW 0.9mph /  1.4km/h 4.0mph /  6.4km/h 0% 0.00in /  0mm 0.0 W/m2
19:03 80.2 °F /  26.8 °C 80.2 °F /  26.8 °C 29.80in /  1009hPa Calm   7.0mph /  11.3km/h 0% 0.00in /  0mm 0.0 W/m2
19:08 79.7 °F /  26.5 °C 79.7 °F /  26.5 °C 29.80in /  1009hPa SW 2.0mph /  3.2km/h 4.0mph /  6.4km/h 0% 0.00in /  0mm 0.0 W/m2
19:14 79.2 °F /  26.2 °C 79.2 °F /  26.2 °C 29.81in /  1009.4hPa SW 0.9mph /  1.4km/h 4.0mph /  6.4km/h 0% 0.00in /  0mm 0.0 W/m2
19:19 78.6 °F /  25.9 °C -29.9 °F /  -34.4 °C 29.81in /  1009.4hPa Calm     1% 0.00in /  0mm 0.0 W/m2
19:24 78.3 °F /  25.7 °C -30.1 °F /  -34.5 °C 29.81in /  1009.4hPa Calm     1% 0.00in /  0mm 0.0 W/m2
19:29 77.7 °F /  25.4 °C -30.5 °F /  -34.7 °C 29.82in /  1009.7hPa Calm     1% 0.00in /  0mm 0.0 W/m2
19:34 77.2 °F /  25.1 °C -30.6 °F /  -34.8 °C 29.82in /  1009.7hPa Calm   1.0mph /  1.6km/h 1% 0.00in /  0mm 0.0 W/m2
19:39 76.6 °F /  24.8 °C -18.0 °F /  -27.8 °C 29.82in /  1009.7hPa Calm     2% 0.00in /  0mm 0.0 W/m2
19:44 76.3 °F /  24.6 °C -18.2 °F /  -27.9 °C 29.83in /  1010hPa Calm     2% 0.00in /  0mm 0.0 W/m2
19:49 75.7 °F /  24.3 °C -18.6 °F /  -28.1 °C 29.83in /  1010hPa Calm     2% 0.00in /  0mm 0.0 W/m2
19:54 75.4 °F /  24.1 °C -18.8 °F /  -28.2 °C 29.83in /  1010hPa Calm   5.0mph /  8km/h 2% 0.00in /  0mm 0.0 W/m2
19:59 74.8 °F /  23.8 °C -19.1 °F /  -28.4 °C 29.83in /  1010hPa Calm   1.0mph /  1.6km/h 2% 0.00in /  0mm 0.0 W/m2
20:05 74.7 °F /  23.7 °C -19.3 °F /  -28.5 °C 29.84in /  1010.4hPa Calm   2.0mph /  3.2km/h 2% 0.00in /  0mm 0.0 W/m2
20:10 74.5 °F /  23.6 °C -11.4 °F /  -24.1 °C 29.84in /  1010.4hPa Calm   1.0mph /  1.6km/h 3% 0.00in /  0mm 0.0 W/m2
20:15 73.9 °F /  23.3 °C -11.7 °F /  -24.3 °C 29.84in /  1010.4hPa Calm     3% 0.00in /  0mm 0.0 W/m2
20:20 73.6 °F /  23.1 °C -12.1 °F /  -24.5 °C 29.85in /  1010.7hPa Calm     3% 0.00in /  0mm 0.0 W/m2
20:25 73.2 °F /  22.9 °C -12.3 °F /  -24.6 °C 29.85in /  1010.7hPa Calm   1.0mph /  1.6km/h 3% 0.00in /  0mm 0.0 W/m2
20:30 73.0 °F /  22.8 °C -12.5 °F /  -24.7 °C 29.85in /  1010.7hPa West 0.9mph /  1.4km/h 1.0mph /  1.6km/h 3% 0.00in /  0mm 0.0 W/m2
20:35 72.9 °F /  22.7 °C -12.5 °F /  -24.7 °C 29.85in /  1010.7hPa Calm     3% 0.00in /  0mm 0.0 W/m2
20:40 72.5 °F /  22.5 °C -12.8 °F /  -24.9 °C 29.85in /  1010.7hPa Calm     3% 0.00in /  0mm 0.0 W/m2
20:45 72.1 °F /  22.3 °C -7.2 °F /  -21.8 °C 29.85in /  1010.7hPa Calm     4% 0.00in /  0mm 0.0 W/m2
20:50 71.8 °F /  22.1 °C -7.4 °F /  -21.9 °C 29.85in /  1010.7hPa Calm     4% 0.00in /  0mm 0.0 W/m2
20:56 71.1 °F /  21.7 °C -8.0 °F /  -22.2 °C 29.85in /  1010.7hPa Calm     4% 0.00in /  0mm 0.0 W/m2
21:01 70.5 °F /  21.4 °C -8.3 °F /  -22.4 °C 29.85in /  1010.7hPa Calm     4% 0.00in /  0mm 0.0 W/m2
21:06 70.0 °F /  21.1 °C -4.2 °F /  -20.1 °C 29.86in /  1011.1hPa Calm     5% 0.00in /  0mm 0.0 W/m2
21:11 69.3 °F /  20.7 °C -4.5 °F /  -20.3 °C 29.86in /  1011.1hPa Calm     5% 0.00in /  0mm 0.0 W/m2
21:16 68.5 °F /  20.3 °C -1.3 °F /  -18.5 °C 29.86in /  1011.1hPa Calm     6% 0.00in /  0mm 0.0 W/m2
21:22 67.8 °F /  19.9 °C -1.8 °F /  -18.8 °C 29.86in /  1011.1hPa Calm     6% 0.00in /  0mm 0.0 W/m2
21:27 67.3 °F /  19.6 °C -2.2 °F /  -19 °C 29.86in /  1011.1hPa Calm     6% 0.00in /  0mm 0.0 W/m2
21:32 66.6 °F /  19.2 °C -2.7 °F /  -19.3 °C 29.86in /  1011.1hPa Calm     6% 0.00in /  0mm 0.0 W/m2
21:37 65.8 °F /  18.8 °C -3.3 °F /  -19.6 °C 29.86in /  1011.1hPa Calm     6% 0.00in /  0mm 0.0 W/m2
21:43 65.5 °F /  18.6 °C -3.5 °F /  -19.7 °C 29.87in /  1011.4hPa Calm     6% 0.00in /  0mm 0.0 W/m2
21:48 64.9 °F /  18.3 °C -4.0 °F /  -20 °C 29.86in /  1011.1hPa Calm     6% 0.00in /  0mm 0.0 W/m2
21:53 64.6 °F /  18.1 °C -4.2 °F /  -20.1 °C 29.87in /  1011.4hPa Calm     6% 0.00in /  0mm 0.0 W/m2
21:58 64.2 °F /  17.9 °C -4.4 °F /  -20.2 °C 29.87in /  1011.4hPa Calm     6% 0.00in /  0mm 0.0 W/m2
22:03 63.9 °F /  17.7 °C -1.5 °F /  -18.6 °C 29.88in /  1011.7hPa Calm     7% 0.00in /  0mm 0.0 W/m2
22:08 63.7 °F /  17.6 °C -1.7 °F /  -18.7 °C 29.88in /  1011.7hPa Calm     7% 0.00in /  0mm 0.0 W/m2
22:13 63.1 °F /  17.3 °C -5.3 °F /  -20.7 °C 29.87in /  1011.4hPa Calm     6% 0.00in /  0mm 0.0 W/m2
22:18 62.8 °F /  17.1 °C -9.2 °F /  -22.9 °C 29.88in /  1011.7hPa Calm     5% 0.00in /  0mm 0.0 W/m2
22:23 62.6 °F /  17 °C -5.6 °F /  -20.9 °C 29.88in /  1011.7hPa Calm     6% 0.00in /  0mm 0.0 W/m2
22:29 62.4 °F /  16.9 °C -2.6 °F /  -19.2 °C 29.88in /  1011.7hPa Calm     7% 0.00in /  0mm 0.0 W/m2
22:34 62.1 °F /  16.7 °C -2.7 °F /  -19.3 °C 29.88in /  1011.7hPa Calm     7% 0.00in /  0mm 0.0 W/m2
22:39 61.9 °F /  16.6 °C 0.0 °F /  -17.8 °C 29.88in /  1011.7hPa Calm     8% 0.00in /  0mm 0.0 W/m2
22:44 61.7 °F /  16.5 °C -6.3 °F /  -21.3 °C 29.88in /  1011.7hPa Calm     6% 0.00in /  0mm 0.0 W/m2
22:49 61.5 °F /  16.4 °C -6.3 °F /  -21.3 °C 29.88in /  1011.7hPa Calm     6% 0.00in /  0mm 0.0 W/m2
22:54 61.3 °F /  16.3 °C -10.3 °F /  -23.5 °C 29.88in /  1011.7hPa NE 0.9mph /  1.4km/h 3.0mph /  4.8km/h 5% 0.00in /  0mm 0.0 W/m2
23:00 61.2 °F /  16.2 °C -10.5 °F /  -23.6 °C 29.88in /  1011.7hPa Calm   1.0mph /  1.6km/h 5% 0.00in /  0mm 0.0 W/m2
23:05 61.2 °F /  16.2 °C -10.5 °F /  -23.6 °C 29.88in /  1011.7hPa Calm     5% 0.00in /  0mm 0.0 W/m2
23:10 61.2 °F /  16.2 °C -10.5 °F /  -23.6 °C 29.88in /  1011.7hPa Calm     5% 0.00in /  0mm 0.0 W/m2
23:16 61.0 °F /  16.1 °C -6.9 °F /  -21.6 °C 29.88in /  1011.7hPa Calm     6% 0.00in /  0mm 0.0 W/m2
23:21 60.8 °F /  16 °C -6.9 °F /  -21.6 °C 29.88in /  1011.7hPa Calm     6% 0.00in /  0mm 0.0 W/m2
23:26 60.4 °F /  15.8 °C -4.0 °F /  -20 °C 29.88in /  1011.7hPa Calm     7% 0.00in /  0mm 0.0 W/m2
23:31 60.3 °F /  15.7 °C -4.2 °F /  -20.1 °C 29.87in /  1011.4hPa Calm     7% 0.00in /  0mm 0.0 W/m2
23:36 60.1 °F /  15.6 °C -4.4 °F /  -20.2 °C 29.87in /  1011.4hPa Calm     7% 0.00in /  0mm 0.0 W/m2
23:41 59.5 °F /  15.3 °C -4.7 °F /  -20.4 °C 29.87in /  1011.4hPa Calm     7% 0.00in /  0mm 0.0 W/m2
23:46 59.2 °F /  15.1 °C -2.2 °F /  -19 °C 29.87in /  1011.4hPa Calm     8% 0.00in /  0mm 0.0 W/m2
23:51 58.8 °F /  14.9 °C -5.3 °F /  -20.7 °C 29.87in /  1011.4hPa Calm     7% 0.00in /  0mm 0.0 W/m2
23:57 58.6 °F /  14.8 °C -8.5 °F /  -22.5 °C 29.87in /  1011.4hPa Calm   1.0mph /  1.6km/h 6% 0.00in /  0mm 0.0 W/m2
Olympia, Windhoek, Namibia
Compliments of Weather Underground - 3.25 mb